Airfield :
LOGIN :

Register | Disclaimer

   EN    FR    IT 

 










Legend :    VFR   Marginal VFR   IFR   Intensive IFR   Very Intensive IFR
Visi :
Ceiling :
>= 8 km
>= 3000ft
5 to 8 km
1000 to 3000 ft
1500m to 5 km
500 to 1000 ft
800 to 1500m
200 to 500 ft
< 800m
< 200 ft
Symbols :   Thunderstorms  Fog  Heavy snow  Heavy precipitations  Wind > 20 kt
SIGMETs :     Misc.  Thunderstorms  Icing  Turbulence  Mountain Waves  Volcanic Ashes







- Airport Elevation : 33 ft
- IATA code : MHZ


EGUN - RAF Mildenhall

CURRENT METAR :
  • 102356Z 00000KT 9999 OVC030 04/04 A3032 RMK AO2A SLP271 T00430043 10046 20030 400820019 $

EXPIRED METARs :
  • 102306Z 00000KT 9999 SCT026 OVC034 04/04 A3032 RMK AO2A SLP271 $
  • 102256Z 27002KT 9999 OVC029 05/05 A3032 RMK AO2A SLPNO T00450045 $
  • 102156Z VRB03KT 9999 OVC028 04/04 A3032 RMK AO2A SLP271 T00430043 $
  • 102142Z 20003KT 9999 OVC028 04/04 A3032 RMK AO2A SLP271 $

TAF TAF EGUN
Valid from the 10 at 20:00 until the 12 at 02:00 UTC


102012Z 1020/1202 30006KT 9999 BKN045 QNH3029INS
BECMG 1101/1102 VRB03KT 3200 BR FEW020 QNH3029INS
BECMG 1102/1103 VRB03KT 0800 FG BKN002 QNH3028INS
TEMPO 1103/1108 0400 FG VV001
BECMG 1110/1111 VRB03KT 3200 BR BKN003 QNH3028INS
BECMG 1111/1112 15006KT 9999 NSW BKN006 QNH3026INS
BECMG 1113/1114 14006KT 9999 BKN010 QNH3024INS
BECMG 1115/1116 12006KT 9999 OVC040 QNH3003INS TX07/1113Z TN00/1104Z
No reported NOTAMs for that airfield.



MET'MAP, your aeronautical weather chart ! - Copyright ORBIFLY December 2007 - Disclaimer

ORBIFLY MET'MAP TEAM :

Programming & Development : Alexandra Zaïnal
Concept & Development : Baudouin d'Aumeries
Co-Development & Prog : Marc-Olivier Méhu
Technical & hardware support : Manuel Goepfert

Contact : metmap@orbifly.com




SOURCES & CREDITS :

   NOAA